sensor_id;sensor_type;location;lat;lon;timestamp;temperature;humidity
4566;DHT22;2295;51.050;14.608;2022-11-21T00:01:27;-3.00;99.90
4566;DHT22;2295;51.050;14.608;2022-11-21T00:04:06;-3.00;99.90
4566;DHT22;2295;51.050;14.608;2022-11-21T00:06:36;-2.90;99.90
4566;DHT22;2295;51.050;14.608;2022-11-21T00:09:04;-2.90;99.90
4566;DHT22;2295;51.050;14.608;2022-11-21T00:11:38;-2.90;99.90
4566;DHT22;2295;51.050;14.608;2022-11-21T00:14:06;-2.90;99.90
4566;DHT22;2295;51.050;14.608;2022-11-21T00:16:35;-2.90;99.90
4566;DHT22;2295;51.050;14.608;2022-11-21T00:19:06;-2.80;99.90
4566;DHT22;2295;51.050;14.608;2022-11-21T00:21:36;-2.80;99.90
4566;DHT22;2295;51.050;14.608;2022-11-21T00:24:09;-2.80;99.90
4566;DHT22;2295;51.050;14.608;2022-11-21T00:26:41;-2.70;99.90
4566;DHT22;2295;51.050;14.608;2022-11-21T00:29:17;-2.70;99.90
4566;DHT22;2295;51.050;14.608;2022-11-21T00:32:00;-2.50;99.90
4566;DHT22;2295;51.050;14.608;2022-11-21T00:34:29;-2.40;99.90
4566;DHT22;2295;51.050;14.608;2022-11-21T00:36:59;-2.40;99.90
4566;DHT22;2295;51.050;14.608;2022-11-21T00:39:30;-2.30;99.90
4566;DHT22;2295;51.050;14.608;2022-11-21T00:41:59;-2.30;99.90
4566;DHT22;2295;51.050;14.608;2022-11-21T00:44:27;-2.30;99.90
4566;DHT22;2295;51.050;14.608;2022-11-21T00:46:56;-2.30;99.90
4566;DHT22;2295;51.050;14.608;2022-11-21T00:49:29;-2.20;99.90
4566;DHT22;2295;51.050;14.608;2022-11-21T00:52:11;-2.20;99.90
4566;DHT22;2295;51.050;14.608;2022-11-21T00:54:39;-2.20;99.90
4566;DHT22;2295;51.050;14.608;2022-11-21T00:57:10;-2.10;99.90
4566;DHT22;2295;51.050;14.608;2022-11-21T00:59:39;-2.10;99.90
4566;DHT22;2295;51.050;14.608;2022-11-21T01:02:07;-2.10;99.90
4566;DHT22;2295;51.050;14.608;2022-11-21T01:04:39;-2.00;99.90
4566;DHT22;2295;51.050;14.608;2022-11-21T01:07:12;-2.00;99.90
4566;DHT22;2295;51.050;14.608;2022-11-21T01:09:40;-1.90;99.90
4566;DHT22;2295;51.050;14.608;2022-11-21T01:12:09;-1.90;99.90
4566;DHT22;2295;51.050;14.608;2022-11-21T01:14:41;-1.80;99.90
4566;DHT22;2295;51.050;14.608;2022-11-21T01:17:10;-1.70;99.90
4566;DHT22;2295;51.050;14.608;2022-11-21T01:19:38;-1.70;99.90
4566;DHT22;2295;51.050;14.608;2022-11-21T01:22:07;-1.60;99.90
4566;DHT22;2295;51.050;14.608;2022-11-21T01:24:37;-1.60;99.90
4566;DHT22;2295;51.050;14.608;2022-11-21T01:27:08;-1.60;99.90
4566;DHT22;2295;51.050;14.608;2022-11-21T01:29:37;-1.40;99.90
4566;DHT22;2295;51.050;14.608;2022-11-21T01:32:08;-1.50;99.90
4566;DHT22;2295;51.050;14.608;2022-11-21T01:34:37;-1.40;99.90
4566;DHT22;2295;51.050;14.608;2022-11-21T01:37:05;-1.30;99.90
4566;DHT22;2295;51.050;14.608;2022-11-21T01:39:34;-1.30;99.90
4566;DHT22;2295;51.050;14.608;2022-11-21T01:42:04;-1.20;99.90
4566;DHT22;2295;51.050;14.608;2022-11-21T01:44:54;-1.20;99.90
4566;DHT22;2295;51.050;14.608;2022-11-21T01:47:36;-1.10;99.90
4566;DHT22;2295;51.050;14.608;2022-11-21T01:50:05;-1.10;99.90
4566;DHT22;2295;51.050;14.608;2022-11-21T01:52:38;-1.10;99.90
4566;DHT22;2295;51.050;14.608;2022-11-21T01:55:09;-1.00;99.90
4566;DHT22;2295;51.050;14.608;2022-11-21T01:57:42;-0.90;99.90
4566;DHT22;2295;51.050;14.608;2022-11-21T02:00:14;-0.80;99.90
4566;DHT22;2295;51.050;14.608;2022-11-21T02:02:50;-0.80;99.90
4566;DHT22;2295;51.050;14.608;2022-11-21T02:05:24;-0.80;99.90
4566;DHT22;2295;51.050;14.608;2022-11-21T02:07:55;-0.80;99.90
4566;DHT22;2295;51.050;14.608;2022-11-21T02:10:24;-0.70;99.90
4566;DHT22;2295;51.050;14.608;2022-11-21T02:12:57;-0.80;99.90
4566;DHT22;2295;51.050;14.608;2022-11-21T02:15:28;-0.80;99.90
4566;DHT22;2295;51.050;14.608;2022-11-21T02:17:56;-0.80;99.90
4566;DHT22;2295;51.050;14.608;2022-11-21T02:20:27;-0.80;99.90
4566;DHT22;2295;51.050;14.608;2022-11-21T02:22:58;-0.70;99.90
4566;DHT22;2295;51.050;14.608;2022-11-21T02:25:34;-0.70;99.90
4566;DHT22;2295;51.050;14.608;2022-11-21T02:28:06;-0.60;99.90
4566;DHT22;2295;51.050;14.608;2022-11-21T02:30:39;-0.60;99.90
4566;DHT22;2295;51.050;14.608;2022-11-21T02:33:09;-0.50;99.90
4566;DHT22;2295;51.050;14.608;2022-11-21T02:35:38;-0.50;99.90
4566;DHT22;2295;51.050;14.608;2022-11-21T02:38:12;-0.40;99.90
4566;DHT22;2295;51.050;14.608;2022-11-21T02:40:49;-0.40;99.90
4566;DHT22;2295;51.050;14.608;2022-11-21T02:43:22;-0.30;99.90
4566;DHT22;2295;51.050;14.608;2022-11-21T02:46:01;-0.30;99.90
4566;DHT22;2295;51.050;14.608;2022-11-21T02:48:30;-0.30;99.90
4566;DHT22;2295;51.050;14.608;2022-11-21T02:50:59;-0.20;99.90
4566;DHT22;2295;51.050;14.608;2022-11-21T02:53:32;-0.20;99.90
4566;DHT22;2295;51.050;14.608;2022-11-21T02:56:02;-0.20;99.90
4566;DHT22;2295;51.050;14.608;2022-11-21T02:58:34;-0.20;99.90
4566;DHT22;2295;51.050;14.608;2022-11-21T03:01:03;-0.20;99.90
4566;DHT22;2295;51.050;14.608;2022-11-21T03:03:34;-0.20;99.90
4566;DHT22;2295;51.050;14.608;2022-11-21T03:06:02;-0.20;99.90
4566;DHT22;2295;51.050;14.608;2022-11-21T03:08:34;-0.20;99.90
4566;DHT22;2295;51.050;14.608;2022-11-21T03:11:04;-0.20;99.90
4566;DHT22;2295;51.050;14.608;2022-11-21T03:13:33;-0.10;99.90
4566;DHT22;2295;51.050;14.608;2022-11-21T03:16:01;-0.10;99.90
4566;DHT22;2295;51.050;14.608;2022-11-21T03:18:30;0.00;99.90
4566;DHT22;2295;51.050;14.608;2022-11-21T03:20:58;0.00;99.90
4566;DHT22;2295;51.050;14.608;2022-11-21T03:23:27;-0.10;99.90
4566;DHT22;2295;51.050;14.608;2022-11-21T03:25:58;-0.10;99.90
4566;DHT22;2295;51.050;14.608;2022-11-21T03:28:33;0.00;99.90
4566;DHT22;2295;51.050;14.608;2022-11-21T03:31:22;0.00;99.90
4566;DHT22;2295;51.050;14.608;2022-11-21T03:33:55;0.00;99.90
4566;DHT22;2295;51.050;14.608;2022-11-21T03:36:23;0.10;99.90
4566;DHT22;2295;51.050;14.608;2022-11-21T03:38:53;0.10;99.90
4566;DHT22;2295;51.050;14.608;2022-11-21T03:41:22;0.10;99.90
4566;DHT22;2295;51.050;14.608;2022-11-21T03:43:59;0.20;99.90
4566;DHT22;2295;51.050;14.608;2022-11-21T03:46:28;0.20;99.90
4566;DHT22;2295;51.050;14.608;2022-11-21T03:49:00;0.10;99.90
4566;DHT22;2295;51.050;14.608;2022-11-21T03:51:47;0.10;99.90
4566;DHT22;2295;51.050;14.608;2022-11-21T03:54:15;0.10;99.90
4566;DHT22;2295;51.050;14.608;2022-11-21T03:56:44;0.10;99.90
4566;DHT22;2295;51.050;14.608;2022-11-21T03:59:13;0.20;99.90
4566;DHT22;2295;51.050;14.608;2022-11-21T04:01:45;0.20;99.90
4566;DHT22;2295;51.050;14.608;2022-11-21T04:04:31;0.20;99.90
4566;DHT22;2295;51.050;14.608;2022-11-21T04:07:13;0.20;99.90
4566;DHT22;2295;51.050;14.608;2022-11-21T04:09:45;0.20;99.90
4566;DHT22;2295;51.050;14.608;2022-11-21T04:12:14;0.10;99.90
4566;DHT22;2295;51.050;14.608;2022-11-21T04:14:44;0.10;99.90
4566;DHT22;2295;51.050;14.608;2022-11-21T04:17:12;0.20;99.90
4566;DHT22;2295;51.050;14.608;2022-11-21T04:19:40;0.20;99.90
4566;DHT22;2295;51.050;14.608;2022-11-21T04:22:09;0.20;99.90
4566;DHT22;2295;51.050;14.608;2022-11-21T04:24:37;0.20;99.90
4566;DHT22;2295;51.050;14.608;2022-11-21T04:27:05;0.20;99.90
4566;DHT22;2295;51.050;14.608;2022-11-21T04:29:34;0.20;99.90
4566;DHT22;2295;51.050;14.608;2022-11-21T04:32:20;0.20;99.90
4566;DHT22;2295;51.050;14.608;2022-11-21T04:35:06;0.20;99.90
4566;DHT22;2295;51.050;14.608;2022-11-21T04:37:42;0.30;99.90
4566;DHT22;2295;51.050;14.608;2022-11-21T04:43:20;0.30;99.90
4566;DHT22;2295;51.050;14.608;2022-11-21T04:45:54;0.30;99.90
4566;DHT22;2295;51.050;14.608;2022-11-21T04:48:24;0.40;99.90
4566;DHT22;2295;51.050;14.608;2022-11-21T04:50:53;0.40;99.90
4566;DHT22;2295;51.050;14.608;2022-11-21T04:53:35;0.40;99.90
4566;DHT22;2295;51.050;14.608;2022-11-21T04:56:12;0.30;99.90
4566;DHT22;2295;51.050;14.608;2022-11-21T04:58:50;0.30;99.90
4566;DHT22;2295;51.050;14.608;2022-11-21T05:01:19;0.40;99.90
4566;DHT22;2295;51.050;14.608;2022-11-21T05:03:51;0.40;99.90
4566;DHT22;2295;51.050;14.608;2022-11-21T05:06:19;0.40;99.90
4566;DHT22;2295;51.050;14.608;2022-11-21T05:08:48;0.40;99.90
4566;DHT22;2295;51.050;14.608;2022-11-21T05:11:20;0.40;99.90
4566;DHT22;2295;51.050;14.608;2022-11-21T05:14:12;0.40;99.90
4566;DHT22;2295;51.050;14.608;2022-11-21T05:16:41;0.40;99.90
4566;DHT22;2295;51.050;14.608;2022-11-21T05:19:12;0.50;99.90
4566;DHT22;2295;51.050;14.608;2022-11-21T05:21:40;0.40;99.90
4566;DHT22;2295;51.050;14.608;2022-11-21T05:24:09;0.40;99.90
4566;DHT22;2295;51.050;14.608;2022-11-21T05:26:38;0.40;99.90
4566;DHT22;2295;51.050;14.608;2022-11-21T05:29:06;0.40;99.90
4566;DHT22;2295;51.050;14.608;2022-11-21T05:31:34;0.40;99.90
4566;DHT22;2295;51.050;14.608;2022-11-21T05:34:04;0.40;99.90
4566;DHT22;2295;51.050;14.608;2022-11-21T05:36:34;0.30;99.90
4566;DHT22;2295;51.050;14.608;2022-11-21T05:39:04;0.40;99.90
4566;DHT22;2295;51.050;14.608;2022-11-21T05:41:32;0.50;99.90
4566;DHT22;2295;51.050;14.608;2022-11-21T05:44:16;0.60;99.90
4566;DHT22;2295;51.050;14.608;2022-11-21T05:46:56;0.70;99.90
4566;DHT22;2295;51.050;14.608;2022-11-21T05:49:25;0.60;99.90
4566;DHT22;2295;51.050;14.608;2022-11-21T05:52:04;0.60;99.90
4566;DHT22;2295;51.050;14.608;2022-11-21T05:54:32;0.70;99.90
4566;DHT22;2295;51.050;14.608;2022-11-21T05:57:01;0.70;99.90
4566;DHT22;2295;51.050;14.608;2022-11-21T05:59:29;0.70;99.90
4566;DHT22;2295;51.050;14.608;2022-11-21T06:02:09;0.70;99.90
4566;DHT22;2295;51.050;14.608;2022-11-21T06:05:07;0.70;99.90
4566;DHT22;2295;51.050;14.608;2022-11-21T06:07:40;0.70;99.90
4566;DHT22;2295;51.050;14.608;2022-11-21T06:10:09;0.70;99.90
4566;DHT22;2295;51.050;14.608;2022-11-21T06:12:37;0.70;99.90
4566;DHT22;2295;51.050;14.608;2022-11-21T06:15:16;0.70;99.90
4566;DHT22;2295;51.050;14.608;2022-11-21T06:17:44;0.70;99.90
4566;DHT22;2295;51.050;14.608;2022-11-21T06:20:13;0.70;99.90
4566;DHT22;2295;51.050;14.608;2022-11-21T06:22:43;0.70;99.90
4566;DHT22;2295;51.050;14.608;2022-11-21T06:25:11;0.70;99.90
4566;DHT22;2295;51.050;14.608;2022-11-21T06:27:39;0.70;99.90
4566;DHT22;2295;51.050;14.608;2022-11-21T06:30:08;0.70;99.90
4566;DHT22;2295;51.050;14.608;2022-11-21T06:32:37;0.70;99.90
4566;DHT22;2295;51.050;14.608;2022-11-21T06:35:08;0.60;99.90
4566;DHT22;2295;51.050;14.608;2022-11-21T06:37:55;0.60;99.90
4566;DHT22;2295;51.050;14.608;2022-11-21T06:40:24;0.60;99.90
4566;DHT22;2295;51.050;14.608;2022-11-21T06:42:55;0.60;99.90
4566;DHT22;2295;51.050;14.608;2022-11-21T06:45:24;0.60;99.90
4566;DHT22;2295;51.050;14.608;2022-11-21T06:47:52;0.70;99.90
4566;DHT22;2295;51.050;14.608;2022-11-21T06:50:20;0.60;99.90
4566;DHT22;2295;51.050;14.608;2022-11-21T06:52:51;0.60;99.90
4566;DHT22;2295;51.050;14.608;2022-11-21T06:55:21;0.70;99.90
4566;DHT22;2295;51.050;14.608;2022-11-21T06:57:58;0.70;99.90
4566;DHT22;2295;51.050;14.608;2022-11-21T07:00:39;0.80;99.90
4566;DHT22;2295;51.050;14.608;2022-11-21T07:03:16;0.90;99.90
4566;DHT22;2295;51.050;14.608;2022-11-21T07:05:49;0.90;99.90
4566;DHT22;2295;51.050;14.608;2022-11-21T07:08:21;0.80;99.90
4566;DHT22;2295;51.050;14.608;2022-11-21T07:11:00;0.90;99.90
4566;DHT22;2295;51.050;14.608;2022-11-21T07:13:55;0.90;99.90
4566;DHT22;2295;51.050;14.608;2022-11-21T07:16:23;0.90;99.90
4566;DHT22;2295;51.050;14.608;2022-11-21T07:18:56;0.90;99.90
4566;DHT22;2295;51.050;14.608;2022-11-21T07:21:26;1.00;99.90
4566;DHT22;2295;51.050;14.608;2022-11-21T07:23:54;1.00;99.90
4566;DHT22;2295;51.050;14.608;2022-11-21T07:26:27;1.00;99.90
4566;DHT22;2295;51.050;14.608;2022-11-21T07:28:57;1.00;99.90
4566;DHT22;2295;51.050;14.608;2022-11-21T07:31:26;1.10;99.90
4566;DHT22;2295;51.050;14.608;2022-11-21T07:33:59;1.10;99.90
4566;DHT22;2295;51.050;14.608;2022-11-21T07:36:38;1.10;99.90
4566;DHT22;2295;51.050;14.608;2022-11-21T07:39:07;1.10;99.90
4566;DHT22;2295;51.050;14.608;2022-11-21T07:41:37;1.10;99.90
4566;DHT22;2295;51.050;14.608;2022-11-21T07:44:05;1.10;99.90
4566;DHT22;2295;51.050;14.608;2022-11-21T07:46:33;1.10;99.90
4566;DHT22;2295;51.050;14.608;2022-11-21T07:49:13;1.10;99.90
4566;DHT22;2295;51.050;14.608;2022-11-21T07:51:51;1.10;99.90
4566;DHT22;2295;51.050;14.608;2022-11-21T07:54:19;1.10;99.90
4566;DHT22;2295;51.050;14.608;2022-11-21T07:57:01;1.20;99.90
4566;DHT22;2295;51.050;14.608;2022-11-21T07:59:29;1.20;99.90
4566;DHT22;2295;51.050;14.608;2022-11-21T08:01:58;1.30;99.90
4566;DHT22;2295;51.050;14.608;2022-11-21T08:04:28;1.40;99.90
4566;DHT22;2295;51.050;14.608;2022-11-21T08:06:59;1.40;99.90
4566;DHT22;2295;51.050;14.608;2022-11-21T08:09:28;1.40;99.90
4566;DHT22;2295;51.050;14.608;2022-11-21T08:12:03;1.30;99.90
4566;DHT22;2295;51.050;14.608;2022-11-21T08:14:32;1.30;99.90
4566;DHT22;2295;51.050;14.608;2022-11-21T08:17:03;1.40;99.90
4566;DHT22;2295;51.050;14.608;2022-11-21T08:19:34;1.40;99.90
4566;DHT22;2295;51.050;14.608;2022-11-21T08:22:15;1.40;99.90
4566;DHT22;2295;51.050;14.608;2022-11-21T08:24:54;1.50;99.90
4566;DHT22;2295;51.050;14.608;2022-11-21T08:27:27;1.60;99.90
4566;DHT22;2295;51.050;14.608;2022-11-21T08:29:55;1.60;99.90
4566;DHT22;2295;51.050;14.608;2022-11-21T08:32:24;1.60;99.90
4566;DHT22;2295;51.050;14.608;2022-11-21T08:34:55;1.60;99.90
4566;DHT22;2295;51.050;14.608;2022-11-21T08:37:26;1.60;99.90
4566;DHT22;2295;51.050;14.608;2022-11-21T08:39:58;1.60;99.90
4566;DHT22;2295;51.050;14.608;2022-11-21T08:42:35;1.70;99.90
4566;DHT22;2295;51.050;14.608;2022-11-21T08:45:10;1.70;99.90
4566;DHT22;2295;51.050;14.608;2022-11-21T08:47:49;1.70;99.90
4566;DHT22;2295;51.050;14.608;2022-11-21T08:50:20;1.70;99.90
4566;DHT22;2295;51.050;14.608;2022-11-21T08:52:50;1.60;99.90
4566;DHT22;2295;51.050;14.608;2022-11-21T08:55:21;1.50;99.90
4566;DHT22;2295;51.050;14.608;2022-11-21T08:57:51;1.50;99.90
4566;DHT22;2295;51.050;14.608;2022-11-21T09:00:23;1.40;99.90
4566;DHT22;2295;51.050;14.608;2022-11-21T09:02:55;1.30;99.90
4566;DHT22;2295;51.050;14.608;2022-11-21T09:05:37;1.20;99.90
4566;DHT22;2295;51.050;14.608;2022-11-21T09:08:15;1.10;99.90
4566;DHT22;2295;51.050;14.608;2022-11-21T09:10:46;1.00;99.90
4566;DHT22;2295;51.050;14.608;2022-11-21T09:13:19;0.90;99.90
4566;DHT22;2295;51.050;14.608;2022-11-21T09:15:47;0.80;99.90
4566;DHT22;2295;51.050;14.608;2022-11-21T09:18:53;0.70;99.90
4566;DHT22;2295;51.050;14.608;2022-11-21T09:21:40;0.70;99.90
4566;DHT22;2295;51.050;14.608;2022-11-21T09:24:11;0.60;99.90
4566;DHT22;2295;51.050;14.608;2022-11-21T09:26:43;0.50;99.90
4566;DHT22;2295;51.050;14.608;2022-11-21T09:29:16;0.50;99.90
4566;DHT22;2295;51.050;14.608;2022-11-21T09:31:45;0.50;99.90
4566;DHT22;2295;51.050;14.608;2022-11-21T09:34:17;0.40;99.90
4566;DHT22;2295;51.050;14.608;2022-11-21T09:36:46;0.40;99.90
4566;DHT22;2295;51.050;14.608;2022-11-21T09:39:17;0.40;99.90
4566;DHT22;2295;51.050;14.608;2022-11-21T09:42:03;0.30;99.90
4566;DHT22;2295;51.050;14.608;2022-11-21T09:45:05;0.30;99.90
4566;DHT22;2295;51.050;14.608;2022-11-21T09:47:36;0.20;99.90
4566;DHT22;2295;51.050;14.608;2022-11-21T09:53:22;0.00;99.90
4566;DHT22;2295;51.050;14.608;2022-11-21T09:56:04;0.00;99.90
4566;DHT22;2295;51.050;14.608;2022-11-21T09:58:40;-0.10;99.90
4566;DHT22;2295;51.050;14.608;2022-11-21T10:01:12;-0.20;99.90
4566;DHT22;2295;51.050;14.608;2022-11-21T10:03:46;-0.20;99.90
4566;DHT22;2295;51.050;14.608;2022-11-21T10:09:44;-0.20;99.90
4566;DHT22;2295;51.050;14.608;2022-11-21T10:12:21;-0.30;99.90
4566;DHT22;2295;51.050;14.608;2022-11-21T10:15:31;-0.30;99.90
4566;DHT22;2295;51.050;14.608;2022-11-21T10:18:19;-0.30;99.90
4566;DHT22;2295;51.050;14.608;2022-11-21T10:24:33;-0.30;99.90
4566;DHT22;2295;51.050;14.608;2022-11-21T10:27:06;-0.30;99.90
4566;DHT22;2295;51.050;14.608;2022-11-21T10:29:43;-0.30;99.90
4566;DHT22;2295;51.050;14.608;2022-11-21T10:32:20;-0.20;99.90
4566;DHT22;2295;51.050;14.608;2022-11-21T10:35:13;-0.20;99.90
4566;DHT22;2295;51.050;14.608;2022-11-21T10:37:56;-0.20;99.90
4566;DHT22;2295;51.050;14.608;2022-11-21T10:40:38;-0.20;99.90
4566;DHT22;2295;51.050;14.608;2022-11-21T10:43:32;-0.10;99.90
4566;DHT22;2295;51.050;14.608;2022-11-21T10:46:27;-0.10;99.90
4566;DHT22;2295;51.050;14.608;2022-11-21T10:49:00;-0.10;99.90
4566;DHT22;2295;51.050;14.608;2022-11-21T10:51:43;-0.10;99.90
4566;DHT22;2295;51.050;14.608;2022-11-21T10:54:18;-0.20;99.90
4566;DHT22;2295;51.050;14.608;2022-11-21T10:57:13;-0.20;99.90
4566;DHT22;2295;51.050;14.608;2022-11-21T10:59:55;-0.20;99.90
4566;DHT22;2295;51.050;14.608;2022-11-21T11:02:28;-0.30;99.90
4566;DHT22;2295;51.050;14.608;2022-11-21T11:05:23;-0.40;99.90
4566;DHT22;2295;51.050;14.608;2022-11-21T11:08:07;-0.40;99.90
4566;DHT22;2295;51.050;14.608;2022-11-21T11:10:37;-0.40;99.90
4566;DHT22;2295;51.050;14.608;2022-11-21T11:13:13;-0.40;99.90
4566;DHT22;2295;51.050;14.608;2022-11-21T11:16:18;-0.40;99.90
4566;DHT22;2295;51.050;14.608;2022-11-21T11:18:54;-0.40;99.90
4566;DHT22;2295;51.050;14.608;2022-11-21T11:21:41;-0.40;99.90
4566;DHT22;2295;51.050;14.608;2022-11-21T11:24:25;-0.40;99.90
4566;DHT22;2295;51.050;14.608;2022-11-21T11:27:02;-0.40;99.90
4566;DHT22;2295;51.050;14.608;2022-11-21T11:29:54;-0.40;99.90
4566;DHT22;2295;51.050;14.608;2022-11-21T11:32:40;-0.40;99.90
4566;DHT22;2295;51.050;14.608;2022-11-21T11:35:21;-0.40;99.90
4566;DHT22;2295;51.050;14.608;2022-11-21T11:37:58;-0.40;99.90
4566;DHT22;2295;51.050;14.608;2022-11-21T11:40:36;-0.40;99.90
4566;DHT22;2295;51.050;14.608;2022-11-21T11:43:23;-0.50;99.90
4566;DHT22;2295;51.050;14.608;2022-11-21T11:46:30;-0.50;99.90
4566;DHT22;2295;51.050;14.608;2022-11-21T11:49:30;-0.50;99.90
4566;DHT22;2295;51.050;14.608;2022-11-21T11:52:48;-0.50;99.90
4566;DHT22;2295;51.050;14.608;2022-11-21T11:55:30;-0.50;99.90
4566;DHT22;2295;51.050;14.608;2022-11-21T11:58:10;-0.50;99.90
4566;DHT22;2295;51.050;14.608;2022-11-21T12:00:49;-0.50;99.90
4566;DHT22;2295;51.050;14.608;2022-11-21T12:03:21;-0.50;99.90
4566;DHT22;2295;51.050;14.608;2022-11-21T12:06:00;-0.50;99.90
4566;DHT22;2295;51.050;14.608;2022-11-21T12:08:42;-0.50;99.90
4566;DHT22;2295;51.050;14.608;2022-11-21T12:11:24;-0.50;99.90
4566;DHT22;2295;51.050;14.608;2022-11-21T12:18:08;-0.40;99.90
4566;DHT22;2295;51.050;14.608;2022-11-21T12:20:44;-0.30;99.90
4566;DHT22;2295;51.050;14.608;2022-11-21T12:23:27;-0.30;99.90
4566;DHT22;2295;51.050;14.608;2022-11-21T12:26:19;-0.30;99.90
4566;DHT22;2295;51.050;14.608;2022-11-21T12:32:05;-0.30;99.90
4566;DHT22;2295;51.050;14.608;2022-11-21T12:34:56;-0.30;99.90
4566;DHT22;2295;51.050;14.608;2022-11-21T12:37:42;-0.20;99.90
4566;DHT22;2295;51.050;14.608;2022-11-21T12:40:34;-0.10;99.90
4566;DHT22;2295;51.050;14.608;2022-11-21T12:43:16;0.00;99.90
4566;DHT22;2295;51.050;14.608;2022-11-21T12:45:49;0.10;99.90
4566;DHT22;2295;51.050;14.608;2022-11-21T12:48:29;0.10;99.90
4566;DHT22;2295;51.050;14.608;2022-11-21T12:51:44;0.20;99.90
4566;DHT22;2295;51.050;14.608;2022-11-21T12:55:12;0.20;99.90
4566;DHT22;2295;51.050;14.608;2022-11-21T12:58:02;0.20;99.90
4566;DHT22;2295;51.050;14.608;2022-11-21T13:00:47;0.20;99.90
4566;DHT22;2295;51.050;14.608;2022-11-21T13:03:41;0.10;99.90
4566;DHT22;2295;51.050;14.608;2022-11-21T13:06:15;0.10;99.90
4566;DHT22;2295;51.050;14.608;2022-11-21T13:08:44;0.10;99.90
4566;DHT22;2295;51.050;14.608;2022-11-21T13:11:38;0.10;99.90
4566;DHT22;2295;51.050;14.608;2022-11-21T13:14:43;0.10;99.90
4566;DHT22;2295;51.050;14.608;2022-11-21T13:17:43;0.20;99.90
4566;DHT22;2295;51.050;14.608;2022-11-21T13:20:37;0.20;99.90
4566;DHT22;2295;51.050;14.608;2022-11-21T13:23:36;0.20;99.90
4566;DHT22;2295;51.050;14.608;2022-11-21T13:26:50;0.30;99.90
4566;DHT22;2295;51.050;14.608;2022-11-21T13:29:26;0.30;99.90
4566;DHT22;2295;51.050;14.608;2022-11-21T13:31:56;0.30;99.90
4566;DHT22;2295;51.050;14.608;2022-11-21T13:34:46;0.30;99.90
4566;DHT22;2295;51.050;14.608;2022-11-21T13:40:46;0.10;99.90
4566;DHT22;2295;51.050;14.608;2022-11-21T13:43:47;0.00;99.90
4566;DHT22;2295;51.050;14.608;2022-11-21T13:49:35;-0.10;99.90
4566;DHT22;2295;51.050;14.608;2022-11-21T13:52:30;-0.10;99.90
4566;DHT22;2295;51.050;14.608;2022-11-21T13:55:18;-0.10;99.90
4566;DHT22;2295;51.050;14.608;2022-11-21T13:58:08;-0.10;99.90
4566;DHT22;2295;51.050;14.608;2022-11-21T14:01:29;-0.20;99.90
4566;DHT22;2295;51.050;14.608;2022-11-21T14:04:48;-0.30;99.90
4566;DHT22;2295;51.050;14.608;2022-11-21T14:07:50;-0.40;99.90
4566;DHT22;2295;51.050;14.608;2022-11-21T14:10:32;-0.60;99.90
4566;DHT22;2295;51.050;14.608;2022-11-21T14:13:38;-0.80;99.90
4566;DHT22;2295;51.050;14.608;2022-11-21T14:16:23;-0.90;99.90
4566;DHT22;2295;51.050;14.608;2022-11-21T14:19:10;-1.00;99.90
4566;DHT22;2295;51.050;14.608;2022-11-21T14:21:45;-1.10;99.90
4566;DHT22;2295;51.050;14.608;2022-11-21T14:24:17;-1.20;99.90
4566;DHT22;2295;51.050;14.608;2022-11-21T14:26:47;-1.40;99.90
4566;DHT22;2295;51.050;14.608;2022-11-21T14:29:36;-1.50;99.90
4566;DHT22;2295;51.050;14.608;2022-11-21T14:32:13;-1.50;99.90
4566;DHT22;2295;51.050;14.608;2022-11-21T14:34:52;-1.60;99.90
4566;DHT22;2295;51.050;14.608;2022-11-21T14:37:39;-1.60;99.90
4566;DHT22;2295;51.050;14.608;2022-11-21T14:40:11;-1.70;99.90
4566;DHT22;2295;51.050;14.608;2022-11-21T14:42:41;-1.70;99.90
4566;DHT22;2295;51.050;14.608;2022-11-21T14:45:29;-1.80;99.90
4566;DHT22;2295;51.050;14.608;2022-11-21T14:48:16;-1.90;99.90
4566;DHT22;2295;51.050;14.608;2022-11-21T14:50:57;-2.00;99.90
4566;DHT22;2295;51.050;14.608;2022-11-21T14:53:44;-2.00;99.90
4566;DHT22;2295;51.050;14.608;2022-11-21T14:56:27;-2.10;99.90
4566;DHT22;2295;51.050;14.608;2022-11-21T14:59:03;-2.10;99.90
4566;DHT22;2295;51.050;14.608;2022-11-21T15:01:38;-2.20;99.90
4566;DHT22;2295;51.050;14.608;2022-11-21T15:04:25;-2.30;99.90
4566;DHT22;2295;51.050;14.608;2022-11-21T15:06:59;-2.30;99.90
4566;DHT22;2295;51.050;14.608;2022-11-21T15:09:39;-2.30;99.90
4566;DHT22;2295;51.050;14.608;2022-11-21T15:12:39;-2.40;99.90
4566;DHT22;2295;51.050;14.608;2022-11-21T15:15:23;-2.50;99.90
4566;DHT22;2295;51.050;14.608;2022-11-21T15:17:56;-2.50;99.90
4566;DHT22;2295;51.050;14.608;2022-11-21T15:20:51;-2.60;99.90
4566;DHT22;2295;51.050;14.608;2022-11-21T15:23:28;-2.70;99.90
4566;DHT22;2295;51.050;14.608;2022-11-21T15:26:00;-2.70;99.90
4566;DHT22;2295;51.050;14.608;2022-11-21T15:28:53;-2.90;99.90
4566;DHT22;2295;51.050;14.608;2022-11-21T15:31:23;-3.00;99.90
4566;DHT22;2295;51.050;14.608;2022-11-21T15:33:56;-3.10;99.90
4566;DHT22;2295;51.050;14.608;2022-11-21T15:37:02;-3.20;99.90
4566;DHT22;2295;51.050;14.608;2022-11-21T15:39:44;-3.30;99.90
4566;DHT22;2295;51.050;14.608;2022-11-21T15:42:38;-3.40;99.90
4566;DHT22;2295;51.050;14.608;2022-11-21T15:45:24;-3.50;99.90
4566;DHT22;2295;51.050;14.608;2022-11-21T15:47:53;-3.50;99.90
4566;DHT22;2295;51.050;14.608;2022-11-21T15:50:26;-3.50;99.90
4566;DHT22;2295;51.050;14.608;2022-11-21T15:52:55;-3.60;99.90
4566;DHT22;2295;51.050;14.608;2022-11-21T15:55:28;-3.50;99.90
4566;DHT22;2295;51.050;14.608;2022-11-21T15:58:02;-3.40;99.90
4566;DHT22;2295;51.050;14.608;2022-11-21T16:00:33;-3.40;99.90
4566;DHT22;2295;51.050;14.608;2022-11-21T16:03:07;-3.50;99.90
4566;DHT22;2295;51.050;14.608;2022-11-21T16:05:38;-3.50;99.90
4566;DHT22;2295;51.050;14.608;2022-11-21T16:08:15;-3.50;99.90
4566;DHT22;2295;51.050;14.608;2022-11-21T16:10:45;-3.40;99.90
4566;DHT22;2295;51.050;14.608;2022-11-21T16:13:16;-3.40;99.90
4566;DHT22;2295;51.050;14.608;2022-11-21T16:15:48;-3.30;99.90
4566;DHT22;2295;51.050;14.608;2022-11-21T16:18:22;-3.20;99.90
4566;DHT22;2295;51.050;14.608;2022-11-21T16:21:12;-3.10;99.90
4566;DHT22;2295;51.050;14.608;2022-11-21T16:23:45;-3.00;99.90
4566;DHT22;2295;51.050;14.608;2022-11-21T16:26:27;-2.90;99.90
4566;DHT22;2295;51.050;14.608;2022-11-21T16:29:10;-2.80;99.90
4566;DHT22;2295;51.050;14.608;2022-11-21T16:31:39;-2.70;99.90
4566;DHT22;2295;51.050;14.608;2022-11-21T16:34:07;-2.60;99.90
4566;DHT22;2295;51.050;14.608;2022-11-21T16:36:44;-2.60;99.90
4566;DHT22;2295;51.050;14.608;2022-11-21T16:39:19;-2.50;99.90
4566;DHT22;2295;51.050;14.608;2022-11-21T16:41:51;-2.50;99.90
4566;DHT22;2295;51.050;14.608;2022-11-21T16:44:29;-2.40;99.90
4566;DHT22;2295;51.050;14.608;2022-11-21T16:47:02;-2.30;99.90
4566;DHT22;2295;51.050;14.608;2022-11-21T16:49:35;-2.20;99.90
4566;DHT22;2295;51.050;14.608;2022-11-21T16:52:11;-2.20;99.90
4566;DHT22;2295;51.050;14.608;2022-11-21T16:54:43;-2.20;99.90
4566;DHT22;2295;51.050;14.608;2022-11-21T16:57:19;-2.20;99.90
4566;DHT22;2295;51.050;14.608;2022-11-21T16:59:49;-2.10;99.90
4566;DHT22;2295;51.050;14.608;2022-11-21T17:02:24;-2.10;99.90
4566;DHT22;2295;51.050;14.608;2022-11-21T17:05:09;-2.10;99.90
4566;DHT22;2295;51.050;14.608;2022-11-21T17:07:47;-2.10;99.90
4566;DHT22;2295;51.050;14.608;2022-11-21T17:10:25;-2.00;99.90
4566;DHT22;2295;51.050;14.608;2022-11-21T17:13:02;-2.00;99.90
4566;DHT22;2295;51.050;14.608;2022-11-21T17:15:39;-2.00;99.90
4566;DHT22;2295;51.050;14.608;2022-11-21T17:18:32;-2.00;99.90
4566;DHT22;2295;51.050;14.608;2022-11-21T17:21:05;-1.90;99.90